createdAt,value
2023-09-10T00:01:59.911Z,8.38
2023-09-10T00:04:28.225Z,9.27
2023-09-10T00:06:55.580Z,9.48
2023-09-10T00:09:23.315Z,8.50
2023-09-10T00:11:50.711Z,10.25
2023-09-10T00:14:18.643Z,9.80
2023-09-10T00:16:46.190Z,10.40
2023-09-10T00:19:13.693Z,9.20
2023-09-10T00:21:41.148Z,9.88
2023-09-10T00:24:10.048Z,9.38
2023-09-10T00:26:37.745Z,9.73
2023-09-10T00:29:05.669Z,9.80
2023-09-10T00:31:34.787Z,10.40
2023-09-10T00:34:03.379Z,9.45
2023-09-10T00:36:30.780Z,9.40
2023-09-10T00:38:58.430Z,9.90
2023-09-10T00:41:25.972Z,9.38
2023-09-10T00:43:53.502Z,9.25
2023-09-10T00:46:21.038Z,10.10
2023-09-10T00:48:49.019Z,9.07
2023-09-10T00:51:16.690Z,8.70
2023-09-10T00:53:44.482Z,8.57
2023-09-10T00:56:13.079Z,9.18
2023-09-10T00:58:41.252Z,7.82
2023-09-10T01:01:09.549Z,8.18
2023-09-10T01:03:38.629Z,7.70
2023-09-10T01:06:06.096Z,6.65
2023-09-10T01:08:33.987Z,7.70
2023-09-10T01:11:30.789Z,7.35
2023-09-10T01:14:19.574Z,7.32
2023-09-10T01:17:01.649Z,7.90
2023-09-10T01:19:53.802Z,8.02
2023-09-10T01:22:47.125Z,7.57
2023-09-10T01:25:15.289Z,7.80
2023-09-10T01:27:44.301Z,8.00
2023-09-10T01:30:12.416Z,8.18
2023-09-10T01:32:53.418Z,7.55
2023-09-10T01:35:26.889Z,8.07
2023-09-10T01:38:18.296Z,8.00
2023-09-10T01:43:15.607Z,7.68
2023-09-10T01:45:43.999Z,7.75
2023-09-10T01:48:11.898Z,8.43
2023-09-10T01:50:39.730Z,7.65
2023-09-10T01:53:07.219Z,7.35
2023-09-10T01:55:34.709Z,7.57
2023-09-10T01:58:02.240Z,7.68
2023-09-10T02:00:30.047Z,7.68
2023-09-10T02:02:57.842Z,7.80
2023-09-10T02:05:25.261Z,7.78
2023-09-10T02:07:52.761Z,7.75
2023-09-10T02:10:20.508Z,8.27
2023-09-10T02:12:47.935Z,8.27
2023-09-10T02:15:20.789Z,8.13
2023-09-10T02:17:48.436Z,7.65
2023-09-10T02:20:16.221Z,7.85
2023-09-10T02:22:43.860Z,8.05
2023-09-10T02:25:11.478Z,8.48
2023-09-10T02:27:41.477Z,7.65
2023-09-10T02:30:09.480Z,7.63
2023-09-10T02:32:39.687Z,8.32
2023-09-10T02:35:07.770Z,8.43
2023-09-10T02:37:37.473Z,7.85
2023-09-10T02:40:09.223Z,8.02
2023-09-10T02:42:36.751Z,8.25
2023-09-10T02:45:04.767Z,8.20
2023-09-10T02:47:33.417Z,8.35
2023-09-10T02:50:00.971Z,8.48
2023-09-10T02:52:31.754Z,7.78
2023-09-10T02:55:00.794Z,8.02
2023-09-10T02:57:29.614Z,7.68
2023-09-10T02:59:57.914Z,7.63
2023-09-10T03:02:25.485Z,8.85
2023-09-10T03:04:53.247Z,8.02
2023-09-10T03:07:20.696Z,8.23
2023-09-10T03:09:50.926Z,7.85
2023-09-10T03:12:26.604Z,7.68
2023-09-10T03:14:56.516Z,7.28
2023-09-10T03:17:25.774Z,7.85
2023-09-10T03:19:53.314Z,8.65
2023-09-10T03:22:20.961Z,7.63
2023-09-10T03:24:48.534Z,7.88
2023-09-10T03:27:16.160Z,8.10
2023-09-10T03:29:45.613Z,7.68
2023-09-10T03:32:13.278Z,8.00
2023-09-10T03:34:43.412Z,8.68
2023-09-10T03:37:10.942Z,7.72
2023-09-10T03:39:38.685Z,8.38
2023-09-10T03:42:07.429Z,7.78
2023-09-10T03:44:37.841Z,7.63
2023-09-10T03:47:06.676Z,7.32
2023-09-10T03:49:36.377Z,7.38
2023-09-10T03:52:15.856Z,7.15
2023-09-10T03:54:43.460Z,8.50
2023-09-10T03:57:10.981Z,7.75
2023-09-10T03:59:38.762Z,7.45
2023-09-10T04:02:06.763Z,7.47
2023-09-10T04:04:34.711Z,7.60
2023-09-10T04:07:02.404Z,8.00
2023-09-10T04:09:32.322Z,7.57
2023-09-10T04:11:59.892Z,7.63
2023-09-10T04:14:27.905Z,7.10
2023-09-10T04:16:55.598Z,7.35
2023-09-10T04:19:24.230Z,7.97
2023-09-10T04:21:51.721Z,7.00
2023-09-10T04:24:19.267Z,7.78
2023-09-10T04:26:46.774Z,7.03
2023-09-10T04:29:15.150Z,8.27
2023-09-10T04:31:44.345Z,7.85
2023-09-10T04:34:12.577Z,7.40
2023-09-10T04:36:40.864Z,7.80
2023-09-10T04:39:10.132Z,8.13
2023-09-10T04:41:40.494Z,8.13
2023-09-10T04:44:08.092Z,8.05
2023-09-10T04:46:36.201Z,7.90
2023-09-10T04:49:03.847Z,7.38
2023-09-10T04:51:32.311Z,7.97
2023-09-10T04:54:01.068Z,7.63
2023-09-10T04:56:28.596Z,7.60
2023-09-10T04:58:56.417Z,7.93
2023-09-10T05:01:25.012Z,7.47
2023-09-10T05:03:54.432Z,7.30
2023-09-10T05:06:24.840Z,8.43
2023-09-10T05:08:52.683Z,8.23
2023-09-10T05:11:20.565Z,8.43
2023-09-10T05:13:48.035Z,7.72
2023-09-10T05:16:18.267Z,7.22
2023-09-10T05:18:45.980Z,7.30
2023-09-10T05:21:13.956Z,7.38
2023-09-10T05:23:41.390Z,7.30
2023-09-10T05:26:09.031Z,7.68
2023-09-10T05:28:39.113Z,7.43
2023-09-10T05:31:09.048Z,7.95
2023-09-10T05:33:38.607Z,8.77
2023-09-10T05:36:07.669Z,9.75
2023-09-10T05:38:35.446Z,9.82
2023-09-10T05:41:05.181Z,9.93
2023-09-10T05:43:32.962Z,9.50
2023-09-10T05:46:03.167Z,9.60
2023-09-10T05:51:00.070Z,8.43
2023-09-10T05:53:30.251Z,8.02
2023-09-10T05:55:57.892Z,8.82
2023-09-10T05:58:26.861Z,8.18
2023-09-10T06:00:54.757Z,9.25
2023-09-10T06:03:22.498Z,8.27
2023-09-10T06:05:53.235Z,7.88
2023-09-10T06:08:24.190Z,8.70
2023-09-10T06:10:51.846Z,7.53
2023-09-10T06:13:19.966Z,8.25
2023-09-10T06:15:47.642Z,7.20
2023-09-10T06:18:15.686Z,7.38
2023-09-10T06:20:43.465Z,7.68
2023-09-10T06:24:35.525Z,7.63
2023-09-10T06:27:04.088Z,7.00
2023-09-10T06:29:34.812Z,7.30
2023-09-10T06:32:03.852Z,7.20
2023-09-10T06:34:36.021Z,7.90
2023-09-10T06:37:04.675Z,6.78
2023-09-10T06:39:40.105Z,6.55
2023-09-10T06:42:14.574Z,7.25
2023-09-10T06:44:56.506Z,7.30
2023-09-10T06:47:24.171Z,6.53
2023-09-10T06:49:51.690Z,7.00
2023-09-10T06:52:19.409Z,7.45
2023-09-10T06:54:47.747Z,7.47
2023-09-10T06:57:15.350Z,6.97
2023-09-10T06:59:42.986Z,8.10
2023-09-10T07:02:10.590Z,7.25
2023-09-10T07:04:38.138Z,7.45
2023-09-10T07:07:05.762Z,6.93
2023-09-10T07:09:33.421Z,7.15
2023-09-10T07:12:00.874Z,6.90
2023-09-10T07:14:29.339Z,7.10
2023-09-10T07:16:56.770Z,7.30
2023-09-10T07:19:24.377Z,7.45
2023-09-10T07:21:51.990Z,6.38
2023-09-10T07:24:19.351Z,7.00
2023-09-10T07:26:50.230Z,6.93
2023-09-10T07:29:18.049Z,6.75
2023-09-10T07:31:45.585Z,6.50
2023-09-10T07:34:15.268Z,7.07
2023-09-10T07:36:45.238Z,6.85
2023-09-10T07:39:15.532Z,6.82
2023-09-10T07:41:42.999Z,7.03
2023-09-10T07:44:10.702Z,7.45
2023-09-10T07:46:38.209Z,6.07
2023-09-10T07:49:05.728Z,6.55
2023-09-10T07:51:33.299Z,7.32
2023-09-10T07:54:00.728Z,6.53
2023-09-10T07:56:28.720Z,6.63
2023-09-10T07:58:56.492Z,6.53
2023-09-10T08:01:24.968Z,6.43
2023-09-10T08:03:52.535Z,6.45
2023-09-10T08:06:20.868Z,6.68
2023-09-10T08:08:48.416Z,6.38
2023-09-10T08:11:15.792Z,6.82
2023-09-10T08:13:45.798Z,7.22
2023-09-10T08:16:14.953Z,6.53
2023-09-10T08:18:43.469Z,6.60
2023-09-10T08:21:11.234Z,7.07
2023-09-10T08:23:38.665Z,6.50
2023-09-10T08:26:06.282Z,6.53
2023-09-10T08:28:33.936Z,6.65
2023-09-10T08:31:01.743Z,7.60
2023-09-10T08:33:31.671Z,6.95
2023-09-10T08:35:59.083Z,6.97
2023-09-10T08:38:27.251Z,6.97
2023-09-10T08:41:01.022Z,6.88
2023-09-10T08:44:08.865Z,6.38
2023-09-10T08:46:40.031Z,6.72
2023-09-10T08:49:13.345Z,6.68
2023-09-10T08:51:41.114Z,6.90
2023-09-10T08:54:12.220Z,7.82
2023-09-10T08:56:40.848Z,7.78
2023-09-10T08:59:11.558Z,7.60
2023-09-10T09:01:39.570Z,7.70
2023-09-10T09:04:08.191Z,7.25
2023-09-10T09:06:38.849Z,7.30
2023-09-10T09:09:09.495Z,7.32
2023-09-10T09:11:40.289Z,7.07
2023-09-10T09:14:13.962Z,7.75
2023-09-10T09:16:42.197Z,7.22
2023-09-10T09:19:15.022Z,6.95
2023-09-10T09:21:46.141Z,6.60
2023-09-10T09:24:52.880Z,6.40
2023-09-10T09:29:55.511Z,6.88
2023-09-10T09:32:23.448Z,7.25
2023-09-10T09:34:52.011Z,7.22
2023-09-10T09:37:22.282Z,7.60
2023-09-10T09:39:51.471Z,6.85
2023-09-10T09:42:18.997Z,6.90
2023-09-10T09:44:46.971Z,6.32
2023-09-10T09:47:15.029Z,6.70
2023-09-10T09:49:48.261Z,6.40
2023-09-10T09:52:19.572Z,5.93
2023-09-10T09:54:48.865Z,6.28
2023-09-10T09:57:17.964Z,6.05
2023-09-10T09:59:45.517Z,6.05
2023-09-10T10:02:18.733Z,6.22
2023-09-10T10:04:46.793Z,5.80
2023-09-10T10:09:46.262Z,6.10
2023-09-10T10:12:16.292Z,6.13
2023-09-10T10:14:44.367Z,5.38
2023-09-10T10:17:12.829Z,5.50
2023-09-10T10:19:41.996Z,5.38
2023-09-10T10:22:10.034Z,5.97
2023-09-10T10:24:39.391Z,5.63
2023-09-10T10:27:07.638Z,7.13
2023-09-10T10:29:35.635Z,18.02
2023-09-10T10:32:13.978Z,23.40
2023-09-10T10:34:50.051Z,33.50
2023-09-10T10:37:43.635Z,59.03
2023-09-10T10:40:17.256Z,74.22
2023-09-10T10:42:47.522Z,81.10
2023-09-10T10:45:18.397Z,81.78
2023-09-10T10:47:48.691Z,80.22
2023-09-10T10:50:28.732Z,79.90
2023-09-10T10:53:07.845Z,76.65
2023-09-10T10:55:35.751Z,72.72
2023-09-10T10:58:03.523Z,70.18
2023-09-10T11:00:31.380Z,67.10
2023-09-10T11:03:25.181Z,62.28
2023-09-10T11:05:56.444Z,59.42
2023-09-10T11:08:33.214Z,56.67
2023-09-10T11:11:05.094Z,55.58
2023-09-10T11:14:03.154Z,49.75
2023-09-10T11:16:34.867Z,46.85
2023-09-10T11:19:05.443Z,41.97
2023-09-10T11:21:55.116Z,39.25
2023-09-10T11:24:25.682Z,35.47
2023-09-10T11:27:25.065Z,32.38
2023-09-10T11:30:15.539Z,29.38
2023-09-10T11:32:46.536Z,28.92
2023-09-10T11:35:21.384Z,28.05
2023-09-10T11:37:57.036Z,25.98
2023-09-10T11:40:27.042Z,24.67
2023-09-10T11:42:54.830Z,24.33
2023-09-10T11:45:24.581Z,22.27
2023-09-10T11:47:52.848Z,22.27
2023-09-10T11:50:24.679Z,24.08
2023-09-10T11:52:52.796Z,22.88
2023-09-10T11:55:20.734Z,23.55
2023-09-10T11:57:48.497Z,22.48
2023-09-10T12:00:17.569Z,20.60
2023-09-10T12:02:45.215Z,20.70
2023-09-10T12:05:12.922Z,18.70
2023-09-10T12:07:44.669Z,19.98
2023-09-10T12:10:14.909Z,16.55
2023-09-10T12:12:45.445Z,17.50
2023-09-10T12:15:13.541Z,17.33
2023-09-10T12:17:41.972Z,14.57
2023-09-10T12:20:10.581Z,14.75
2023-09-10T12:22:38.233Z,15.27
2023-09-10T12:25:06.623Z,13.88
2023-09-10T12:27:34.146Z,14.15
2023-09-10T12:30:01.773Z,12.52
2023-09-10T12:32:31.234Z,12.82
2023-09-10T12:34:59.231Z,12.25
2023-09-10T12:37:26.698Z,11.68
2023-09-10T12:39:54.798Z,11.88
2023-09-10T12:42:22.269Z,10.80
2023-09-10T12:44:49.681Z,10.18
2023-09-10T12:47:17.569Z,10.27
2023-09-10T12:49:45.478Z,9.40
2023-09-10T12:52:12.844Z,9.60
2023-09-10T12:54:40.750Z,9.27
2023-09-10T12:57:09.272Z,8.93
2023-09-10T12:59:37.534Z,9.02
2023-09-10T13:02:05.669Z,8.63
2023-09-10T13:04:33.576Z,7.90
2023-09-10T13:07:01.201Z,8.15
2023-09-10T13:09:28.705Z,8.10
2023-09-10T13:11:56.229Z,7.82
2023-09-10T13:14:23.790Z,7.70
2023-09-10T13:16:51.300Z,7.93
2023-09-10T13:19:18.988Z,7.20
2023-09-10T13:21:46.295Z,7.55
2023-09-10T13:24:13.818Z,6.90
2023-09-10T13:26:41.537Z,6.93
2023-09-10T13:29:09.054Z,6.70
2023-09-10T13:31:36.458Z,6.70
2023-09-10T13:34:06.327Z,6.72
2023-09-10T13:36:34.067Z,6.80
2023-09-10T13:39:01.464Z,6.30
2023-09-10T13:41:28.944Z,6.38
2023-09-10T13:43:58.874Z,6.50
2023-09-10T13:46:26.565Z,6.28
2023-09-10T13:48:54.341Z,5.93
2023-09-10T13:51:21.953Z,6.20
2023-09-10T13:53:50.094Z,6.20
2023-09-10T13:56:17.862Z,6.15
2023-09-10T13:58:45.216Z,6.20
2023-09-10T14:01:13.879Z,5.95
2023-09-10T14:03:44.475Z,6.50
2023-09-10T14:06:12.081Z,5.53
2023-09-10T14:08:40.200Z,5.57
2023-09-10T14:11:07.908Z,5.80
2023-09-10T14:13:35.658Z,5.65
2023-09-10T14:16:03.100Z,5.03
2023-09-10T14:18:30.955Z,5.00
2023-09-10T14:20:58.592Z,4.70
2023-09-10T14:23:29.034Z,4.60
2023-09-10T14:25:56.737Z,4.55
2023-09-10T14:28:24.528Z,5.05
2023-09-10T14:30:52.339Z,4.65
2023-09-10T14:33:24.637Z,4.55
2023-09-10T14:35:53.665Z,4.82
2023-09-10T14:38:21.311Z,4.38
2023-09-10T14:40:48.816Z,4.72
2023-09-10T14:43:19.489Z,4.20
2023-09-10T14:45:47.182Z,4.40
2023-09-10T14:48:15.028Z,4.30
2023-09-10T14:50:42.636Z,4.85
2023-09-10T14:53:10.402Z,4.40
2023-09-10T14:55:38.292Z,4.38
2023-09-10T14:58:10.636Z,4.45
2023-09-10T15:00:40.760Z,4.57
2023-09-10T15:03:08.857Z,4.50
2023-09-10T15:05:36.781Z,4.90
2023-09-10T15:08:05.066Z,4.43
2023-09-10T15:10:32.827Z,4.82
2023-09-10T15:13:00.237Z,4.70
2023-09-10T15:15:29.956Z,4.70
2023-09-10T15:17:57.450Z,4.82
2023-09-10T15:20:25.127Z,4.60
2023-09-10T15:22:52.784Z,4.75
2023-09-10T15:25:20.612Z,5.10
2023-09-10T15:27:48.305Z,5.05
2023-09-10T15:30:15.824Z,4.78
2023-09-10T15:32:43.608Z,4.55
2023-09-10T15:35:11.363Z,4.60
2023-09-10T15:37:38.912Z,4.90
2023-09-10T15:40:07.176Z,4.50
2023-09-10T15:42:34.609Z,4.60
2023-09-10T15:45:06.024Z,4.93
2023-09-10T15:47:33.970Z,4.15
2023-09-10T15:50:01.885Z,4.25
2023-09-10T15:52:30.192Z,4.75
2023-09-10T15:54:57.602Z,4.43
2023-09-10T15:57:28.050Z,4.50
2023-09-10T15:59:55.873Z,4.07
2023-09-10T16:02:28.063Z,4.10
2023-09-10T16:04:56.810Z,4.10
2023-09-10T16:07:26.132Z,4.32
2023-09-10T16:09:54.045Z,4.32
2023-09-10T16:12:24.121Z,3.92
2023-09-10T16:14:51.527Z,4.07
2023-09-10T16:17:19.330Z,4.50
2023-09-10T16:19:46.724Z,4.65
2023-09-10T16:22:20.666Z,4.15
2023-09-10T16:24:48.129Z,4.22
2023-09-10T16:27:18.188Z,4.63
2023-09-10T16:29:46.031Z,4.57
2023-09-10T16:32:13.837Z,4.32
2023-09-10T16:34:41.495Z,4.97
2023-09-10T16:37:11.582Z,5.60
2023-09-10T16:39:41.677Z,4.70
2023-09-10T16:42:09.366Z,5.28
2023-09-10T16:44:36.886Z,5.22
2023-09-10T16:47:04.718Z,5.35
2023-09-10T16:49:32.327Z,5.50
2023-09-10T16:52:04.591Z,6.05
2023-09-10T16:54:37.523Z,5.97
2023-09-10T17:01:45.039Z,5.28
2023-09-10T17:04:12.719Z,6.13
2023-09-10T17:06:40.732Z,6.18
2023-09-10T17:09:24.018Z,6.60
2023-09-10T17:11:52.698Z,6.53
2023-09-10T17:14:20.848Z,5.85
2023-09-10T17:16:48.763Z,6.70
2023-09-10T17:19:17.422Z,6.38
2023-09-10T17:21:47.364Z,6.43
2023-09-10T17:24:15.417Z,6.70
2023-09-10T17:26:43.073Z,6.40
2023-09-10T17:29:12.789Z,6.40
2023-09-10T17:31:40.229Z,6.55
2023-09-10T17:34:11.141Z,7.05
2023-09-10T17:39:06.185Z,6.20
2023-09-10T17:41:37.961Z,6.45
2023-09-10T17:44:06.256Z,6.60
2023-09-10T17:46:34.228Z,6.50
2023-09-10T17:49:01.886Z,6.88
2023-09-10T17:51:29.588Z,6.75
2023-09-10T17:53:56.939Z,6.57
2023-09-10T17:56:24.462Z,6.95
2023-09-10T17:58:51.957Z,6.28
2023-09-10T18:01:19.626Z,6.80
2023-09-10T18:03:47.558Z,6.30
2023-09-10T18:06:15.059Z,6.70
2023-09-10T18:08:45.320Z,6.65
2023-09-10T18:11:12.754Z,7.10
2023-09-10T18:13:42.625Z,7.53
2023-09-10T18:16:10.770Z,7.40
2023-09-10T18:18:38.486Z,7.82
2023-09-10T18:21:07.075Z,8.10
2023-09-10T18:23:37.907Z,8.35
2023-09-10T18:26:06.275Z,8.27
2023-09-10T18:28:34.206Z,7.82
2023-09-10T18:31:07.409Z,7.78
2023-09-10T18:33:38.526Z,8.18
2023-09-10T18:38:51.205Z,7.75
2023-09-10T18:41:19.113Z,9.07
2023-09-10T18:43:46.788Z,9.02
2023-09-10T18:46:16.785Z,9.00
2023-09-10T18:48:44.384Z,8.43
2023-09-10T18:51:11.879Z,8.13
2023-09-10T18:53:40.008Z,8.20
2023-09-10T18:56:10.288Z,8.37
2023-09-10T18:58:37.925Z,7.60
2023-09-10T19:01:05.921Z,8.40
2023-09-10T19:03:33.803Z,8.15
2023-09-10T19:06:01.857Z,8.30
2023-09-10T19:08:31.265Z,9.02
2023-09-10T19:11:00.018Z,12.50
2023-09-10T19:13:27.941Z,13.20
2023-09-10T19:15:55.573Z,13.50
2023-09-10T19:18:23.267Z,12.68
2023-09-10T19:20:51.441Z,12.32
2023-09-10T19:23:19.627Z,12.93
2023-09-10T19:25:56.780Z,12.32
2023-09-10T19:28:52.110Z,11.80
2023-09-10T19:31:21.267Z,12.32
2023-09-10T19:33:49.135Z,12.13
2023-09-10T19:36:18.093Z,11.43
2023-09-10T19:38:46.161Z,10.18
2023-09-10T19:41:13.678Z,11.27
2023-09-10T19:43:41.382Z,10.35
2023-09-10T19:46:08.971Z,10.75
2023-09-10T19:48:37.105Z,10.80
2023-09-10T19:51:08.230Z,10.32
2023-09-10T19:53:36.315Z,9.85
2023-09-10T19:56:12.048Z,10.13
2023-09-10T19:58:39.835Z,10.10
2023-09-10T20:01:07.707Z,9.90
2023-09-10T20:03:35.338Z,10.05
2023-09-10T20:06:03.371Z,9.85
2023-09-10T20:08:31.107Z,9.60
2023-09-10T20:10:58.811Z,9.55
2023-09-10T20:13:26.521Z,9.45
2023-09-10T20:15:53.919Z,9.70
2023-09-10T20:18:21.678Z,9.25
2023-09-10T20:20:58.283Z,9.00
2023-09-10T20:23:27.092Z,9.35
2023-09-10T20:25:55.115Z,9.15
2023-09-10T20:28:23.134Z,8.52
2023-09-10T20:30:50.611Z,8.35
2023-09-10T20:33:18.366Z,8.00
2023-09-10T20:35:45.955Z,8.60
2023-09-10T20:38:13.840Z,8.05
2023-09-10T20:40:41.341Z,8.43
2023-09-10T20:43:10.003Z,8.23
2023-09-10T20:45:39.057Z,7.05
2023-09-10T20:48:07.231Z,7.72
2023-09-10T20:50:34.936Z,7.38
2023-09-10T20:53:02.780Z,7.85
2023-09-10T20:55:30.292Z,7.65
2023-09-10T20:57:57.734Z,7.53
2023-09-10T21:00:26.192Z,7.20
2023-09-10T21:02:57.494Z,6.75
2023-09-10T21:05:30.017Z,7.47
2023-09-10T21:07:58.165Z,7.50
2023-09-10T21:10:25.705Z,7.82
2023-09-10T21:12:58.431Z,6.30
2023-09-10T21:15:34.001Z,7.15
2023-09-10T21:18:01.948Z,6.80
2023-09-10T21:20:30.238Z,6.95
2023-09-10T21:22:58.874Z,6.80
2023-09-10T21:25:26.435Z,6.82
2023-09-10T21:27:54.100Z,7.45
2023-09-10T21:30:21.680Z,6.43
2023-09-10T21:32:49.660Z,6.60
2023-09-10T21:35:17.049Z,7.38
2023-09-10T21:37:44.619Z,6.63
2023-09-10T21:40:12.566Z,7.00
2023-09-10T21:42:40.290Z,6.60
2023-09-10T21:45:08.333Z,6.75
2023-09-10T21:47:35.916Z,6.38
2023-09-10T21:50:03.515Z,6.45
2023-09-10T21:52:31.025Z,6.38
2023-09-10T21:54:58.435Z,6.47
2023-09-10T21:57:26.032Z,6.15
2023-09-10T21:59:53.554Z,6.13
2023-09-10T22:02:21.335Z,6.60
2023-09-10T22:04:48.690Z,6.10
2023-09-10T22:07:19.809Z,6.68
2023-09-10T22:09:47.536Z,5.95
2023-09-10T22:12:15.043Z,6.05
2023-09-10T22:14:42.629Z,6.55
2023-09-10T22:17:10.176Z,6.50
2023-09-10T22:19:37.837Z,5.80
2023-09-10T22:22:05.637Z,6.35
2023-09-10T22:24:33.087Z,6.38
2023-09-10T22:27:00.807Z,5.78
2023-09-10T22:29:28.275Z,6.60
2023-09-10T22:31:58.153Z,6.22
2023-09-10T22:34:25.665Z,6.18
2023-09-10T22:36:55.609Z,6.38
2023-09-10T22:39:23.470Z,6.53
2023-09-10T22:41:51.083Z,6.45
2023-09-10T22:44:18.604Z,6.40
2023-09-10T22:46:46.170Z,6.57
2023-09-10T22:49:13.758Z,6.20
2023-09-10T22:51:44.285Z,6.57
2023-09-10T22:54:11.886Z,6.00
2023-09-10T22:56:41.616Z,6.10
2023-09-10T22:59:09.338Z,6.35
2023-09-10T23:01:37.109Z,6.32
2023-09-10T23:04:06.636Z,5.80
2023-09-10T23:06:34.350Z,5.88
2023-09-10T23:09:02.281Z,6.20
2023-09-10T23:11:30.126Z,6.30
2023-09-10T23:13:57.809Z,6.00
2023-09-10T23:16:25.450Z,6.15
2023-09-10T23:18:52.932Z,5.75
2023-09-10T23:21:20.952Z,6.03
2023-09-10T23:23:48.392Z,6.05
2023-09-10T23:26:16.107Z,5.57
2023-09-10T23:28:43.796Z,5.97
2023-09-10T23:31:11.677Z,5.93
2023-09-10T23:33:39.285Z,5.43
2023-09-10T23:36:07.346Z,5.70
2023-09-10T23:38:35.294Z,5.63
2023-09-10T23:41:03.171Z,5.60
2023-09-10T23:43:30.742Z,5.68
2023-09-10T23:45:58.490Z,5.82
2023-09-10T23:48:25.893Z,5.75
2023-09-10T23:50:55.774Z,5.47
2023-09-10T23:53:23.445Z,5.53
2023-09-10T23:55:50.944Z,5.47
2023-09-10T23:58:18.593Z,5.78
